Accueil
METAR-TAF:

METAR-TAF

Aéroports :

Aéroport de Birmingham

Birmingham, Angleterre

latitude: 52-27N, longitude: 001-44W, altitude: 99 m

Observation

Le bulletin a été fait il y a 37 minutes, à 11:50 UTC
Vent 6 kt de sud-ouest, variant entre sud/sud-est et ouest
Température 22°C
Humidité 53%
Pression 1018 hPa
Visibilité 10 km ou plus
Nuages épars à une hauteur de 3200 ft

METAR: EGBB 181150Z 22006KT 150V260 9999 SCT032 22/12 Q1018

Heure: 13:27 (12:27 UTC)

Prévision

Le bulletin a été fait il y a 1 heure et 29 minutes, à 10:58 UTC
Prévision valable du 18 à 12 UTC au 19 à 12 UTC
Vent 6 kt de sud/sud-ouest
Visibilité 10 km ou plus
Nuages épars à une hauteur de 4000 ft

TAF: EGBB 181058Z 1812/1912 20006KT 9999 SCT040

Observations et prévisions météorologiques de plus de 4000 aéroports (messages METAR et TAF).

Les stations disponibles sont représentées par des disques jaunes et rouges sur la carte.

Passer la souris dessus pour voir le nom de la station.

Cliquer dessus pour voir les observations et prévisions météorologiques.

Pour changer de carte: cliquez sur les boutons verts avec une croix noire pour zoomer, sur le bouton vert avec un tiret pour effectuer un zoom arrière, ou sur les flèches vertes pour les cartes adjacentes.


METAR-TAF: